• Join FlightAware (Why Join?)
  • Login
  • US Flag GB Flag 
18:20 EDT


 

Airport Tracker/Info


-or-


 

Live Flight TrackerFlight Track Log ✈ AAR214 ✈ 05-Aug-2013 ✈ RKSI / ICN - KSFO

Flight Track Log - Related Links

Times and Time Zones

All times are in EDT time to prevent confusion due to time zone crossing. See the AAR214 flight status page for this flight to view local times or setup timezone preferences in your user account.

Time Position Orientation Groundspeed Altitude Reporting Facility
EDT Latitude Longitude Course Direction KTS MPH feet Rate Location/Type
04:06 37.7347 126.8254 48° Northeast  Level FlightAware Approximate
04:07 37.8230 126.9510 48° Northeast  Level FlightAware Approximate
04:08 37.9112 127.0769 48° Northeast  Level FlightAware Approximate
04:09 37.9992 127.2031 48° Northeast  Level FlightAware Approximate
04:10 38.0871 127.3295 49° Northeast  Level FlightAware Approximate
04:11 38.1749 127.4563 49° Northeast  Level FlightAware Approximate
04:12 38.2625 127.5834 49° Northeast  Level FlightAware Approximate
04:13 38.3499 127.7108 49° Northeast  Level FlightAware Approximate
04:14 38.4373 127.8385 49° Northeast  Level FlightAware Approximate
04:15 38.5245 127.9665 49° Northeast  Level FlightAware Approximate
04:16 38.6115 128.0948 49° Northeast  Level FlightAware Approximate
04:17 38.6985 128.2235 49° Northeast  Level FlightAware Approximate
04:18 38.7845 128.3520 50° Northeast  Level FlightAware Approximate
04:19 38.8706 128.4818 50° Northeast  Level FlightAware Approximate
04:20 38.9566 128.6120 50° Northeast  Level FlightAware Approximate
04:21 39.0423 128.7425 50° Northeast  Level FlightAware Approximate
04:22 39.1280 128.8734 50° Northeast  Level FlightAware Approximate
04:23 39.2135 129.0045 50° Northeast  Level FlightAware Approximate
04:24 39.2988 129.1360 50° Northeast  Level FlightAware Approximate
04:25 39.3840 129.2677 50° Northeast  Level FlightAware Approximate
04:26 39.4687 129.4002 50° Northeast  Level FlightAware Approximate
04:27 39.5533 129.5330 50° Northeast  Level FlightAware Approximate
04:28 39.6377 129.6661 51° Northeast  Level FlightAware Approximate
04:29 39.7220 129.7995 51° Northeast  Level FlightAware Approximate
04:30 39.8061 129.9332 51° Northeast  Level FlightAware Approximate
04:31 39.8901 130.0673 51° Northeast  Level FlightAware Approximate
04:32 39.9739 130.2017 51° Northeast  Level FlightAware Approximate
04:33 40.0575 130.3365 51° Northeast  Level FlightAware Approximate
04:34 40.1410 130.4716 51° Northeast  Level FlightAware Approximate
04:35 40.2243 130.6069 51° Northeast  Level FlightAware Approximate
04:36 40.3075 130.7427 51° Northeast  Level FlightAware Approximate
04:37 40.3905 130.8788 51° Northeast  Level FlightAware Approximate
04:38 40.4734 131.0152 51° Northeast  Level FlightAware Approximate
04:38 36.5350 131.1620 51° Northeast 511 588 33,000  Level FlightAware
04:39 40.5561 131.1519 51° Northeast  Level FlightAware Approximate
04:39 36.4940 131.2300 127° Southeast 508 585 33,000  Level FlightAware
04:40 36.4560 131.3170 118° Southeast 508 585 33,000  Level FlightAware
04:40 36.4220 131.3960 118° Southeast 508 585 33,000  Level FlightAware
04:41 36.3900 131.4700 118° Southeast 508 585 33,000  Level FlightAware
04:41 36.4380 131.6070 66° East 33,000  Level FlightAware
04:41 36.4340 131.6700 94° East 528 608 33,000  Level FlightAware
04:42 36.4270 131.8100 94° East 525 604 33,000  Level FlightAware
04:43 36.4190 131.9440 94° East 524 603 33,000  Level FlightAware
04:44 36.4130 132.0480 94° East 524 603 33,000  Level FlightAware
04:44 36.4070 132.1640 94° East 523 602 33,000  Level FlightAware
04:45 36.3980 132.2890 95° East 526 605 33,000  Level FlightAware
04:45 36.3930 132.3670 95° East 527 606 33,000  Level FlightAware
04:46 36.3880 132.4700 93° East 526 605 33,000  Level FlightAware
04:47 36.3800 132.5860 95° East 528 608 33,000  Level FlightAware
04:47 36.3730 132.6950 95° East 531 611 33,000  Level FlightAware
04:48 36.3660 132.8000 95° East 532 612 33,000  Level FlightAware
04:48 36.3590 132.9090 95° East 532 612 33,000  Level FlightAware
04:49 36.3520 133.0160 95° East 533 613 33,000  Level FlightAware
04:49 36.3450 133.1190 95° East 533 613 33,000  Level FlightAware
04:50 36.3360 133.2440 95° East 534 615 33,000  Level FlightAware
04:51 36.3300 133.3330 95° East 534 615 33,000  Level FlightAware
04:51 36.3230 133.4420 95° East 536 617 33,000  Level FlightAware
04:52 36.3140 133.5620 95° East 537 618 33,000  Level FlightAware
04:52 36.3070 133.6650 95° East 537 618 33,000  Level FlightAware
04:53 36.2990 133.7720 95° East 538 619 33,000  Level FlightAware
04:54 36.2910 133.8750 95° East 540 621 33,000  Level FlightAware
04:54 36.2830 133.9870 95° East 540 621 33,000  Level FlightAware
04:55 36.2750 134.0960 95° East 540 621 33,000  Level FlightAware
04:55 36.2660 134.2030 96° East 540 621 33,000  Level FlightAware
04:56 36.2580 134.3120 95° East 541 623 33,000  Level FlightAware
04:56 36.2510 134.4070 95° East 540 621 33,000  Level FlightAware
04:57 36.2480 134.5570 91° East 541 623 33,000  Level FlightAware
04:58 36.2580 134.6790 84° East 542 624 33,000  Level FlightAware
04:58 36.2670 134.7820 84° East 541 623 33,000  Level FlightAware
04:59 36.2760 134.8790 83° East 541 623 33,000  Level FlightAware
05:00 36.2860 134.9970 84° East 541 623 33,000  Level FlightAware
05:00 36.2950 135.1100 84° East 541 623 33,000  Level FlightAware
05:01 36.3040 135.2200 84° East 543 625 33,000  Level FlightAware
05:01 36.3150 135.3450 84° East 545 627 33,000  Level FlightAware
05:02 36.3230 135.4520 85° East 546 628 33,000  Level FlightAware
05:03 36.3320 135.5590 84° East 547 629 33,000  Level FlightAware
05:03 36.3410 135.6690 84° East 547 629 33,000  Level FlightAware
05:04 36.3490 135.7790 85° East 546 628 33,000  Level FlightAware
05:04 36.3580 135.8880 84° East 545 627 33,000  Level FlightAware
05:05 36.3660 135.9940 85° East 541 623 33,000  Level FlightAware
05:06 36.3740 136.1050 85° East 539 620 33,000  Level FlightAware
05:06 36.3840 136.2380 85° East 540 621 33,000  Level FlightAware
05:07 36.3920 136.3440 85° East 537 618 33,000  Level FlightAware
05:07 36.4010 136.4510 84° East 535 616 33,000  Level FlightAware
05:08 36.4300 136.5520 70° East 529 609 33,000  Level FlightAware
05:09 36.4570 136.6520 71° East 533 613 33,000  Level FlightAware
05:09 36.4830 136.7540 72° East 532 612 33,000  Level FlightAware
05:10 36.5080 136.8490 72° East 532 612 33,000  Level FlightAware
05:10 36.5330 136.9480 73° East 527 606 33,000  Level FlightAware
05:11 36.5580 137.0480 73° East 526 605 33,000  Level FlightAware
05:12 36.5870 137.1650 73° East 525 604 33,000  Level FlightAware
05:12 36.5990 137.2680 82° East 529 609 33,000  Level FlightAware
05:13 36.5870 137.3590 99° East 524 603 33,000  Level FlightAware
05:13 36.5460 137.4630 116° Southeast 515 593 33,000  Level FlightAware
05:14 36.4990 137.5430 126° Southeast 514 592 33,000  Level FlightAware
05:14 36.4430 137.6270 130° Southeast 514 592 33,000  Level FlightAware
05:15 36.3900 137.7080 129° Southeast 514 592 33,000  Level FlightAware
05:16 36.3480 137.7790 126° Southeast 518 596 33,000  Level FlightAware
05:16 36.3120 137.8750 115° Southeast 519 597 33,000  Level FlightAware
05:17 36.2820 137.9720 111° Southeast 519 597 33,000  Level FlightAware
05:17 36.2470 138.0800 112° Southeast 519 597 33,000  Level FlightAware
05:18 36.2150 138.1800 112° Southeast 523 602 33,000  Level FlightAware
05:18 36.1910 138.2590 111° Southeast 519 597 33,000  Level FlightAware
05:19 36.1540 138.3740 112° Southeast 523 602 33,000  Level FlightAware
05:19 36.1410 138.4150 111° Southeast 520 598 33,000  Level FlightAware
05:21 36.0970 138.6130 105° East 523 602 33,000  Level FlightAware
05:21 36.1030 138.6850 84° East 518 596 33,000  Level FlightAware
05:22 36.1340 138.8180 74° East 515 593 33,000  Level FlightAware
05:23 36.1640 138.9510 74° East 514 592 33,000  Level FlightAware
05:23 36.1880 139.0550 74° East 514 592 33,000  Level FlightAware
05:24 36.2070 139.1420 75° East 514 592 33,000  Level FlightAware
05:25 36.2390 139.2800 74° East 514 592 33,000  Level FlightAware
05:25 36.2680 139.4090 74° East 512 589 33,000  Level FlightAware
05:26 36.2910 139.5100 74° East 512 589 33,000  Level FlightAware
05:26 36.3130 139.6110 75° East 512 589 33,000  Level FlightAware
05:27 36.3340 139.7020 74° East 511 588 33,000  Level FlightAware
05:28 36.3560 139.8010 75° East 511 588 33,000  Level FlightAware
05:28 36.3790 139.9050 75° East 511 588 33,000  Level FlightAware
05:29 36.3980 140.0080 77° East 512 589 33,000  Level FlightAware
05:29 36.4140 140.0980 78° East 511 588 33,000  Level FlightAware
05:30 36.4310 140.1980 78° East 511 588 33,000  Level FlightAware
05:30 36.4500 140.3100 78° East 512 589 33,000  Level FlightAware
05:31 36.4650 140.4000 78° East 513 590 33,000  Level FlightAware
05:32 36.4820 140.5060 79° East 515 593 33,000  Level FlightAware
05:32 36.4950 140.5860 79° East 515 593 33,000  Level FlightAware
05:33 36.5150 140.7080 78° East 514 592 33,000  Level FlightAware
05:33 36.5320 140.8130 79° East 514 592 33,000  Level FlightAware
05:34 36.5490 140.9160 78° East 515 593 33,000  Level FlightAware
05:35 36.5640 141.0100 79° East 516 594 33,000  Level FlightAware
05:35 36.5800 141.1120 79° East 516 594 33,000  Level FlightAware
05:36 36.5960 141.2090 78° East 517 595 33,000  Level FlightAware
05:36 36.6130 141.3190 79° East 519 597 33,000  Level FlightAware
05:37 36.6270 141.4080 79° East 518 596 33,000  Level FlightAware
05:37 36.6450 141.5240 79° East 518 596 33,000  Level FlightAware
05:38 36.6600 141.6190 79° East 519 597 33,000 60 Level FlightAware
05:39 36.6770 141.7270 79° East 520 598 33,100 480 Climbing FlightAware
05:39 36.6940 141.8360 79° East 520 598 33,600 780 Climbing FlightAware
05:39 36.6970 141.8590 81° East 520 598 33,700 720 Climbing FlightAware
05:40 36.7130 141.9650 79° East 515 593 34,400 780 Climbing FlightAware
05:41 36.7400 142.1430 79° East 514 592 35,000 420 Climbing FlightAware
05:42 36.7560 142.2510 79° East 515 593 35,000  Level FlightAware
05:42 36.7670 142.3210 79° East 514 592 35,000  Level FlightAware
05:43 36.7950 142.5100 79° East 513 590 35,000  Level FlightAware
05:44 36.8120 142.6270 80° East 512 589 35,000  Level FlightAware
05:44 36.8240 142.7140 80° East 511 588 35,000  Level FlightAware
05:45 36.8400 142.8220 79° East 510 587 35,000  Level FlightAware
05:46 36.8560 142.9320 80° East 509 586 35,000  Level FlightAware
05:46 36.8700 143.0340 80° East 510 587 35,000  Level FlightAware
05:47 36.8850 143.1340 79° East 510 587 35,000  Level FlightAware
05:47 36.8980 143.2300 80° East 511 588 35,000  Level FlightAware
05:48 36.9150 143.3510 80° East 510 587 35,000  Level FlightAware
05:49 36.9310 143.4730 81° East 510 587 35,000  Level FlightAware
05:49 36.9470 143.5840 80° East 510 587 35,000  Level FlightAware
05:50 36.9580 143.6730 81° East 510 587 35,000  Level FlightAware
05:51 36.9770 143.7990 79° East 769 885 35,000  Level FlightAware
05:51 36.9900 143.8980 81° East 512 589 35,000  Level FlightAware
05:52 37.0100 144.0520 81° East 510 587 35,000  Level FlightAware
05:52 37.0200 144.1300 81° East 508 585 35,000  Level FlightAware
05:53 37.0350 144.2540 81° East 507 583 35,000  Level FlightAware
05:54 37.0450 144.3410 82° East 507 583 35,000  Level FlightAware
05:54 37.0610 144.4700 81° East 506 582 35,000  Level FlightAware
05:55 37.0730 144.5710 82° East 505 581 35,000  Level FlightAware
05:56 37.0900 144.7170 82° East 508 585 35,000  Level FlightAware
05:56 37.1030 144.8330 82° East 508 585 35,000  Level FlightAware
05:57 37.1150 144.9340 81° East 507 583 35,000  Level FlightAware
05:58 37.1270 145.0370 82° East 507 583 35,000  Level FlightAware
05:58 37.1440 145.1820 82° East 508 585 35,000  Level FlightAware
05:59 37.1560 145.2890 82° East 508 585 35,000  Level FlightAware
06:00 37.1670 145.3850 82° East 508 585 35,000  Level FlightAware
06:00 37.1770 145.4800 82° East 507 583 35,000  Level FlightAware
06:01 37.1920 145.6140 82° East 504 580 35,000  Level FlightAware
06:02 37.2020 145.7020 82° East 504 580 35,000  Level FlightAware
06:02 37.2120 145.7910 82° East 504 580 35,000  Level FlightAware
06:03 37.2220 145.8820 82° East 504 580 35,000  Level FlightAware
06:03 37.2730 145.9950 60° Northeast 35,000  Level FlightAware
06:03 37.2780 146.0190 75° East 497 572 35,000  Level FlightAware
06:04 37.3000 146.1160 74° East 498 573 35,000  Level FlightAware
06:05 37.3210 146.2100 74° East 501 577 35,000  Level FlightAware
06:05 37.3430 146.3060 74° East 501 577 35,000  Level FlightAware
06:06 37.3630 146.3920 74° East 501 577 35,000  Level FlightAware
06:06 37.3820 146.4780 74° East 501 577 35,000  Level FlightAware
06:07 37.4020 146.5640 74° East 501 577 35,000  Level FlightAware
06:08 37.4210 146.6490 74° East 501 577 35,000  Level FlightAware
06:08 37.4410 146.7350 74° East 501 577 35,000  Level FlightAware
06:09 37.4610 146.8210 74° East 501 577 35,000  Level FlightAware
06:09 37.4800 146.9070 74° East 501 577 35,000  Level FlightAware
06:10 37.5000 146.9930 74° East 501 577 35,000  Level FlightAware
06:11 37.5190 147.0790 74° East 501 577 35,000  Level FlightAware
06:11 37.5390 147.1650 74° East 501 577 35,000  Level FlightAware
06:12 37.5590 147.2530 74° East 501 577 35,000  Level FlightAware
06:12 37.5770 147.3350 74° East 501 577 35,000  Level FlightAware
06:13 37.5970 147.4210 74° East 501 577 35,000  Level FlightAware
06:14 37.6160 147.5070 74° East 501 577 35,000  Level FlightAware
06:14 37.6360 147.5930 74° East 501 577 35,000  Level FlightAware
06:17 37.8016 147.9374 59° Northeast  Level Estimated
06:18 37.8704 148.0813 59° Northeast  Level Estimated
06:19 37.9389 148.2255 59° Northeast  Level Estimated
06:20 38.0073 148.3700 59° Northeast  Level Estimated
06:21 38.0755 148.5147 59° Northeast  Level Estimated
06:22 38.1435 148.6598 59° Northeast  Level Estimated
06:23 38.2113 148.8051 59° Northeast  Level Estimated
06:24 38.2790 148.9506 59° Northeast  Level Estimated
06:25 38.3465 149.0964 59° Northeast  Level Estimated
06:26 38.4138 149.2425 60° Northeast  Level Estimated
06:27 38.4809 149.3889 60° Northeast  Level Estimated
06:28 38.5478 149.5356 60° Northeast  Level Estimated
06:29 38.6146 149.6825 60° Northeast  Level Estimated
06:30 38.6811 149.8297 60° Northeast  Level Estimated
06:31 38.7475 149.9771 60° Northeast  Level Estimated
06:32 38.8137 150.1249 60° Northeast  Level Estimated
06:33 38.8797 150.2729 60° Northeast  Level Estimated
06:34 38.9455 150.4212 60° Northeast  Level Estimated
06:35 39.0111 150.5697 60° Northeast  Level Estimated
06:36 39.0766 150.7186 60° Northeast  Level Estimated
06:37 39.1418 150.8677 61° Northeast  Level Estimated
06:38 39.2069 151.0171 61° Northeast  Level Estimated
06:39 39.2718 151.1667 61° Northeast  Level Estimated
06:40 39.3364 151.3167 61° Northeast  Level Estimated
06:41 39.4009 151.4669 61° Northeast  Level Estimated
06:42 39.4652 151.6174 61° Northeast  Level Estimated
06:43 39.5293 151.7682 61° Northeast  Level Estimated
06:44 39.5932 151.9193 61° Northeast  Level Estimated
06:45 39.6569 152.0706 61° Northeast  Level Estimated
06:46 39.7204 152.2222 61° Northeast  Level Estimated
06:47 39.7837 152.3741 61° Northeast  Level Estimated
06:48 39.8469 152.5262 62° Northeast  Level Estimated
06:49 39.9098 152.6787 62° Northeast  Level Estimated
06:50 39.9725 152.8314 62° Northeast  Level Estimated
06:51 40.0350 152.9844 62° Northeast  Level Estimated
06:52 40.0973 153.1377 62° Northeast  Level Estimated
06:53 40.1595 153.2913 62° Northeast  Level Estimated
06:54 40.2214 153.4451 62° Northeast  Level Estimated
06:55 40.2831 153.5993 62° Northeast  Level Estimated
06:56 40.3446 153.7537 62° Northeast  Level Estimated
06:57 40.4058 153.9084 62° Northeast  Level Estimated
06:58 40.4669 154.0634 63° Northeast  Level Estimated
06:59 40.5278 154.2186 63° Northeast  Level Estimated
07:00 40.5885 154.3742 63° Northeast  Level Estimated
07:01 40.6489 154.5300 63° Northeast  Level Estimated
07:02 40.7092 154.6861 63° Northeast  Level Estimated
07:03 40.7692 154.8425 63° Northeast  Level Estimated
07:04 40.8291 154.9992 63° Northeast  Level Estimated
07:05 40.8887 155.1561 63° Northeast  Level Estimated
07:06 40.9481 155.3134 63° Northeast  Level Estimated
07:07 41.0073 155.4709 63° Northeast  Level Estimated
07:08 41.0663 155.6287 64° Northeast  Level Estimated
07:09 41.1250 155.7868 64° Northeast  Level Estimated
07:10 41.1836 155.9451 64° Northeast  Level Estimated
07:11 41.2419 156.1038 64° Northeast  Level Estimated
07:12 41.3000 156.2627 64° Northeast  Level Estimated
07:13 41.3579 156.4219 64° Northeast  Level Estimated
07:14 41.4156 156.5814 64° Northeast  Level Estimated
07:15 41.4730 156.7412 64° Northeast  Level Estimated
07:16 41.5303 156.9013 64° Northeast  Level Estimated
07:17 41.5873 157.0616 65° Northeast  Level Estimated
07:18 41.6440 157.2222 65° Northeast  Level Estimated
07:19 41.7006 157.3832 65° Northeast  Level Estimated
07:20 41.7569 157.5444 65° Northeast  Level Estimated
07:21 41.8130 157.7058 65° Northeast  Level Estimated
07:22 41.8689 157.8676 65° Northeast  Level Estimated
07:23 41.9246 158.0296 65° Northeast  Level Estimated
07:24 41.9800 158.1920 65° Northeast  Level Estimated
07:25 42.0352 158.3546 65° Northeast  Level Estimated
07:26 42.0902 158.5175 66° East  Level Estimated
07:27 42.1449 158.6806 66° East  Level Estimated
07:28 42.1994 158.8441 66° East  Level Estimated
07:29 42.2537 159.0078 66° East  Level Estimated
07:30 42.3077 159.1718 66° East  Level Estimated
07:31 42.3615 159.3361 66° East  Level Estimated
07:32 42.4151 159.5007 66° East  Level Estimated
07:33 42.4684 159.6656 66° East  Level Estimated
07:34 42.5215 159.8307 66° East  Level Estimated
07:35 42.5744 159.9961 66° East  Level Estimated
07:36 42.6270 160.1618 67° East  Level Estimated
07:37 42.6794 160.3278 67° East  Level Estimated
07:38 42.7315 160.4941 67° East  Level Estimated
07:39 42.7834 160.6606 67° East  Level Estimated
07:40 42.8351 160.8274 67° East  Level Estimated
07:41 42.8865 160.9945 67° East  Level Estimated
07:42 42.9377 161.1619 67° East  Level Estimated
07:43 42.9886 161.3296 67° East  Level Estimated
07:44 43.0393 161.4975 68° East  Level Estimated
07:45 43.0897 161.6657 68° East  Level Estimated
07:46 43.1399 161.8342 68° East  Level Estimated
07:47 43.1898 162.0029 68° East  Level Estimated
07:48 43.2396 162.1720 68° East  Level Estimated
07:49 43.2890 162.3413 68° East  Level Estimated
07:50 43.3382 162.5109 68° East  Level Estimated
07:51 43.3871 162.6807 68° East  Level Estimated
07:52 43.4358 162.8508 68° East  Level Estimated
07:53 43.4843 163.0213 69° East  Level Estimated
07:54 43.5325 163.1919 69° East  Level Estimated
07:55 43.5804 163.3629 69° East  Level Estimated
07:55 41.6500 165.0000 68° East 530 610 35,000  Level Oakland Oceanic (ODAPS)
07:56 43.6281 163.5341 69° East  Level Estimated
07:57 43.6755 163.7056 69° East  Level Estimated
07:58 43.7227 163.8774 69° East  Level Estimated
07:59 43.7696 164.0494 69° East  Level Estimated
08:00 43.8162 164.2217 69° East  Level Estimated
08:01 41.9686 166.0924 69° East 530 610 35,000  Level FlightAware Transoceanic
08:02 42.0207 166.2756 69° East 530 610 35,000  Level FlightAware Transoceanic
08:03 42.0725 166.4590 69° East 530 610 35,000  Level FlightAware Transoceanic
08:04 42.1240 166.6427 69° East 530 610 35,000  Level FlightAware Transoceanic
08:05 42.1752 166.8267 69° East 530 610 35,000  Level FlightAware Transoceanic
08:05 42.2000 166.8833 70° East 537 618 35,000  Level Oakland Oceanic (ODAPS)
08:06 42.2262 167.0111 70° East 530 610 35,000  Level FlightAware Transoceanic
08:07 42.2768 167.1957 70° East 530 610 35,000  Level FlightAware Transoceanic
08:08 42.3271 167.3806 70° East 530 610 35,000  Level FlightAware Transoceanic
08:09 42.3771 167.5658 70° East 530 610 35,000  Level FlightAware Transoceanic
08:10 42.4269 167.7513 70° East 530 610 35,000  Level FlightAware Transoceanic
08:11 42.4920 167.9742 70° East 537 618 35,000  Level FlightAware Transoceanic
08:12 42.5396 168.1570 71° East 537 618 35,000  Level FlightAware Transoceanic
08:13 42.5870 168.3400 71° East 537 618 35,000  Level FlightAware Transoceanic
08:14 42.6341 168.5234 71° East 537 618 35,000  Level FlightAware Transoceanic
08:15 42.6808 168.7070 71° East 537 618 35,000  Level FlightAware Transoceanic
08:16 42.7273 168.8909 71° East 537 618 35,000  Level FlightAware Transoceanic
08:17 42.7735 169.0750 71° East 537 618 35,000  Level FlightAware Transoceanic
08:18 42.8194 169.2595 71° East 537 618 35,000  Level FlightAware Transoceanic
08:19 42.8650 169.4442 71° East 537 618 35,000 1,380 Level FlightAware Transoceanic
08:19 42.8833 169.5000 72° East 537 618 37,000  Climbing Oakland Oceanic (ODAPS)
08:20 42.9103 169.6292 72° East 537 618 35,000 -1,260 Descending FlightAware Transoceanic
08:21 42.9553 169.8145 72° East 537 618 35,000  Level FlightAware Transoceanic
08:22 43.0000 170.0000 79° East 537 618 35,000 1,920 Level FlightAware Transoceanic
08:22 43.0000 170.0000 79° East 541 623 37,000  Climbing Oakland Oceanic (ODAPS)
08:23 43.0290 170.2003 79° East 537 618 35,000 -1,020 Descending FlightAware Transoceanic
08:24 43.0577 170.4009 79° East 537 618 35,000 960 Level FlightAware Transoceanic
08:25 43.0878 170.6142 79° East 537 618 37,000 960 Climbing FlightAware Transoceanic
08:26 43.1163 170.8193 79° East 537 618 37,000  Level FlightAware Transoceanic
08:27 43.1445 171.0246 79° East 537 618 37,000  Level FlightAware Transoceanic
08:28 43.1689 171.2049 80° East 541 623 37,000  Level FlightAware Transoceanic
08:29 43.1958 171.4063 80° East 541 623 37,000  Level FlightAware Transoceanic
08:30 43.2224 171.6080 80° East 541 623 37,000  Level FlightAware Transoceanic
08:31 43.2486 171.8098 80° East 541 623 37,000  Level FlightAware Transoceanic
08:32 43.2744 172.0117 80° East 541 623 37,000  Level FlightAware Transoceanic
08:33 43.2999 172.2139 80° East 541 623 37,000  Level FlightAware Transoceanic
08:33 43.3000 172.2167 80° East 542 624 37,000  Level Oakland Oceanic (ODAPS)
08:34 43.3251 172.4162 80° East 541 623 37,000  Level FlightAware Transoceanic
08:35 43.3499 172.6187 81° East 541 623 37,000  Level FlightAware Transoceanic
08:36 43.3743 172.8213 81° East 541 623 37,000  Level FlightAware Transoceanic
08:37 43.3984 173.0241 81° East 541 623 37,000  Level FlightAware Transoceanic
08:38 43.4221 173.2271 81° East 541 623 37,000  Level FlightAware Transoceanic
08:39 43.4455 173.4326 81° East 542 624 37,000  Level FlightAware Transoceanic
08:40 43.4684 173.6358 81° East 542 624 37,000  Level FlightAware Transoceanic
08:41 43.4911 173.8392 81° East 542 624 37,000  Level FlightAware Transoceanic
08:42 43.5133 174.0427 81° East 542 624 37,000  Level FlightAware Transoceanic
08:43 43.5353 174.2463 82° East 542 624 37,000  Level FlightAware Transoceanic
08:44 43.5568 174.4501 82° East 542 624 37,000  Level FlightAware Transoceanic
08:45 43.5780 174.6541 82° East 542 624 37,000  Level FlightAware Transoceanic
08:46 43.5988 174.8582 82° East 542 624 37,000  Level FlightAware Transoceanic
08:47 43.6193 175.0624 82° East 542 624 37,000  Level FlightAware Transoceanic
08:47 43.6167 175.0167 82° East 542 624 37,000  Level Oakland Oceanic (ODAPS)
08:48 43.6393 175.2668 82° East 542 624 37,000  Level FlightAware Transoceanic
08:49 43.6591 175.4713 82° East 542 624 37,000  Level FlightAware Transoceanic
08:50 43.6784 175.6759 83° East 542 624 37,000  Level FlightAware Transoceanic
08:51 43.6974 175.8807 83° East 542 624 37,000  Level FlightAware Transoceanic
08:52 43.7161 176.0856 83° East 542 624 37,000  Level FlightAware Transoceanic
08:53 43.7328 176.2562 83° East 542 624 37,000  Level FlightAware Transoceanic
08:54 43.7508 176.4633 83° East 542 624 37,000  Level FlightAware Transoceanic
08:55 43.7685 176.6705 83° East 542 624 37,000  Level FlightAware Transoceanic
08:56 43.7858 176.8777 83° East 542 624 37,000  Level FlightAware Transoceanic
08:57 43.8027 177.0852 84° East 542 624 37,000  Level FlightAware Transoceanic
08:58 43.8192 177.2927 84° East 542 624 37,000  Level FlightAware Transoceanic
08:59 43.8354 177.5003 84° East 542 624 37,000  Level FlightAware Transoceanic
09:00 43.8512 177.7081 84° East 542 624 37,000  Level FlightAware Transoceanic
09:00 43.8667 177.8833 84° East 556 640 37,000  Level Oakland Oceanic (ODAPS)
09:01 43.8666 177.9160 84° East 542 624 37,000  Level FlightAware Transoceanic
09:02 43.8817 178.1239 84° East 542 624 37,000  Level FlightAware Transoceanic
09:03 43.8963 178.3320 84° East 542 624 37,000  Level FlightAware Transoceanic
09:04 43.9106 178.5402 85° East 542 624 37,000  Level FlightAware Transoceanic
09:05 43.9245 178.7484 85° East 542 624 37,000  Level FlightAware Transoceanic
09:06 43.9380 178.9568 85° East 542 624 37,000  Level FlightAware Transoceanic
09:07 43.9514 179.1522 85° East 556 640 37,000  Level FlightAware Transoceanic
09:08 43.9641 179.3640 85° East 556 640 37,000  Level FlightAware Transoceanic
09:09 43.9765 179.5759 85° East 556 640 37,000  Level FlightAware Transoceanic
09:10 43.9884 179.7879 86° East 556 640 37,000  Level FlightAware Transoceanic
09:10 44.0000 180.0000 71° East 563 648 37,000  Level Oakland Oceanic (ODAPS)
09:11 44.0000 -180.0000 71° East 556 640 37,000  Level FlightAware Transoceanic
09:12 44.0514 -179.7948 71° East 556 640 37,000  Level FlightAware Transoceanic
09:13 44.1025 -179.5893 71° East 556 640 37,000  Level FlightAware Transoceanic
09:14 44.1532 -179.3835 71° East 556 640 37,000  Level FlightAware Transoceanic
09:14 44.2000 -179.1833 71° East 575 662 37,000  Level Oakland Oceanic (ODAPS)
09:15 44.2035 -179.1772 71° East 556 640 37,000  Level FlightAware Transoceanic
09:16 44.2535 -178.9706 71° East 556 640 37,000  Level FlightAware Transoceanic
09:17 44.3031 -178.7637 72° East 563 648 37,000  Level FlightAware Transoceanic
09:18 44.3523 -178.5564 72° East 563 648 37,000  Level FlightAware Transoceanic
09:19 44.4011 -178.3488 72° East 563 648 37,000  Level FlightAware Transoceanic
09:20 44.4496 -178.1409 72° East 563 648 37,000  Level FlightAware Transoceanic
09:21 44.5015 -177.9081 72° East 575 662 37,000  Level FlightAware Transoceanic
09:22 44.5504 -177.6943 72° East 575 662 37,000  Level FlightAware Transoceanic
09:23 44.5989 -177.4801 72° East 575 662 37,000  Level FlightAware Transoceanic
09:24 44.6470 -177.2656 73° East 575 662 37,000  Level FlightAware Transoceanic
09:25 44.6946 -177.0507 73° East 575 662 37,000  Level FlightAware Transoceanic
09:26 44.7419 -176.8355 73° East 575 662 37,000  Level FlightAware Transoceanic
09:27 44.7888 -176.6199 73° East 575 662 37,000  Level FlightAware Transoceanic
09:28 44.8352 -176.4040 73° East 575 662 37,000  Level FlightAware Transoceanic
09:28 44.8500 -176.3333 73° East 563 648 37,000  Level Oakland Oceanic (ODAPS)
09:29 44.8813 -176.1877 73° East 575 662 37,000  Level FlightAware Transoceanic
09:30 44.9269 -175.9711 74° East 575 662 37,000  Level FlightAware Transoceanic
09:31 44.9721 -175.7541 74° East 575 662 37,000  Level FlightAware Transoceanic
09:32 45.0169 -175.5368 74° East 575 662 37,000  Level FlightAware Transoceanic
09:33 45.0614 -175.3192 74° East 575 662 37,000  Level FlightAware Transoceanic
09:34 45.1053 -175.1012 74° East 575 662 37,000  Level FlightAware Transoceanic
09:35 45.1164 -175.0446 74° East 563 648 37,000  Level FlightAware Transoceanic
09:36 45.1594 -174.8287 74° East 563 648 37,000  Level FlightAware Transoceanic
09:37 45.2020 -174.6124 74° East 563 648 37,000  Level FlightAware Transoceanic
09:38 45.2442 -174.3958 75° East 563 648 37,000  Level FlightAware Transoceanic
09:39 45.2859 -174.1789 75° East 563 648 37,000  Level FlightAware Transoceanic
09:40 45.3273 -173.9617 75° East 563 648 37,000  Level FlightAware Transoceanic
09:41 45.3682 -173.7442 75° East 563 648 37,000  Level FlightAware Transoceanic
09:42 45.4088 -173.5263 75° East 563 648 37,000  Level FlightAware Transoceanic
09:42 45.4333 -173.4167 75° East 566 651 37,000  Level Oakland Oceanic (ODAPS)
09:43 45.4489 -173.3082 75° East 563 648 37,000  Level FlightAware Transoceanic
09:44 45.4886 -173.0897 76° East 563 648 37,000  Level FlightAware Transoceanic
09:45 45.5278 -172.8709 76° East 563 648 37,000  Level FlightAware Transoceanic
09:46 45.5667 -172.6518 76° East 563 648 37,000  Level FlightAware Transoceanic
09:47 45.6051 -172.4324 76° East 563 648 37,000  Level FlightAware Transoceanic
09:48 45.6432 -172.2127 76° East 563 648 37,000  Level FlightAware Transoceanic
09:49 45.6938 -171.9304 76° East 566 651 37,000  Level FlightAware Transoceanic
09:50 45.7294 -171.7170 77° East 566 651 37,000  Level FlightAware Transoceanic
09:51 45.7646 -171.5033 77° East 566 651 37,000  Level FlightAware Transoceanic
09:52 45.7995 -171.2893 77° East 566 651 37,000  Level FlightAware Transoceanic
09:53 45.8339 -171.0751 77° East 566 651 37,000  Level FlightAware Transoceanic
09:54 45.8679 -170.8606 77° East 566 651 37,000  Level FlightAware Transoceanic
09:55 45.9015 -170.6458 77° East 566 651 37,000  Level FlightAware Transoceanic
09:56 45.9348 -170.4308 78° East 566 651 37,000  Level FlightAware Transoceanic
09:56 45.9500 -170.3500 78° East 593 682 37,000  Level Oakland Oceanic (ODAPS)
09:57 45.9676 -170.2155 78° East 566 651 37,000  Level FlightAware Transoceanic
09:57 46.0000 -170.0000 78° East 577 664 37,000  Level Oakland Oceanic (ODAPS)
09:58 46.0000 -170.0000 78° East 566 651 37,000  Level FlightAware Transoceanic
09:59 46.0316 -169.7823 78° East 566 651 37,000  Level FlightAware Transoceanic
10:00 46.0628 -169.5643 78° East 566 651 37,000  Level FlightAware Transoceanic
10:01 46.0935 -169.3461 79° East 566 651 37,000  Level FlightAware Transoceanic
10:02 46.1238 -169.1276 79° East 593 682 37,000  Level FlightAware Transoceanic
10:03 46.1538 -168.9089 79° East 593 682 37,000  Level FlightAware Transoceanic
10:04 46.1914 -168.6289 79° East 577 664 37,000  Level FlightAware Transoceanic
10:05 46.2217 -168.3994 79° East 577 664 37,000  Level FlightAware Transoceanic
10:06 46.2516 -168.1697 79° East 577 664 37,000  Level FlightAware Transoceanic
10:07 46.2810 -167.9398 80° East 577 664 37,000  Level FlightAware Transoceanic
10:08 46.3099 -167.7096 80° East 577 664 37,000  Level FlightAware Transoceanic
10:09 46.3383 -167.4792 80° East 577 664 37,000  Level FlightAware Transoceanic
10:10 46.3663 -167.2486 80° East 577 664 37,000  Level FlightAware Transoceanic
10:10 46.3833 -167.1667 80° East 561 646 37,000  Level Oakland Oceanic (ODAPS)
10:11 46.3939 -167.0177 80° East 577 664 37,000  Level FlightAware Transoceanic
10:12 46.4210 -166.7865 80° East 577 664 37,000  Level FlightAware Transoceanic
10:13 46.4476 -166.5552 81° East 577 664 37,000  Level FlightAware Transoceanic
10:14 46.4737 -166.3236 81° East 577 664 37,000  Level FlightAware Transoceanic
10:15 46.4994 -166.0918 81° East 577 664 37,000  Level FlightAware Transoceanic
10:16 46.5329 -165.8363 81° East 561 646 37,000  Level FlightAware Transoceanic
10:17 46.5563 -165.6138 81° East 561 646 37,000  Level FlightAware Transoceanic
10:18 46.5793 -165.3912 82° East 561 646 37,000  Level FlightAware Transoceanic
10:19 46.6019 -165.1684 82° East 561 646 37,000  Level FlightAware Transoceanic
10:20 46.6240 -164.9454 82° East 561 646 37,000  Level FlightAware Transoceanic
10:21 46.6457 -164.7223 82° East 561 646 37,000  Level FlightAware Transoceanic
10:22 46.6670 -164.4989 82° East 561 646 37,000  Level FlightAware Transoceanic
10:23 46.6878 -164.2754 82° East 561 646 37,000  Level FlightAware Transoceanic
10:24 46.7082 -164.0517 83° East 561 646 37,000  Level FlightAware Transoceanic
10:24 46.7000 -164.0667 82° East 557 641 37,000  Level Oakland Oceanic (ODAPS)
10:25 46.7281 -163.8278 83° East 561 646 37,000  Level FlightAware Transoceanic
10:26 46.7476 -163.6038 83° East 561 646 37,000  Level FlightAware Transoceanic
10:27 46.7667 -163.3796 83° East 561 646 37,000  Level FlightAware Transoceanic
10:28 46.7853 -163.1553 83° East 561 646 37,000  Level FlightAware Transoceanic
10:29 46.8036 -162.9308 83° East 561 646 37,000  Level FlightAware Transoceanic
10:30 46.8160 -162.7163 83° East 557 641 37,000  Level FlightAware Transoceanic
10:31 46.8338 -162.4907 84° East 557 641 37,000  Level FlightAware Transoceanic
10:32 46.8511 -162.2649 84° East 557 641 37,000  Level FlightAware Transoceanic
10:33 46.8680 -162.0390 84° East 557 641 37,000  Level FlightAware Transoceanic
10:34 46.8845 -161.8130 84° East 557 641 37,000  Level FlightAware Transoceanic
10:35 46.9005 -161.5868 84° East 557 641 37,000  Level FlightAware Transoceanic
10:36 46.9160 -161.3605 84° East 557 641 37,000  Level FlightAware Transoceanic
10:37 46.9311 -161.1340 85° East 557 641 37,000  Level FlightAware Transoceanic
10:38 46.9458 -160.9075 85° East 557 641 37,000  Level FlightAware Transoceanic
10:38 46.9500 -160.9667 85° East 551 634 37,000  Level Oakland Oceanic (ODAPS)
10:39 46.9600 -160.6808 85° East 557 641 37,000  Level FlightAware Transoceanic
10:40 46.9738 -160.4540 85° East 557 641 37,000  Level FlightAware Transoceanic
10:41 46.9871 -160.2270 85° East 557 641 37,000  Level FlightAware Transoceanic
10:42 47.0000 -160.0000 86° East 557 641 37,000  Level FlightAware Transoceanic
10:42 47.0000 -160.0000 86° East 539 620 37,000  Level Oakland Oceanic (ODAPS)
10:43 47.0091 -159.7878 86° East 557 641 37,000  Level FlightAware Transoceanic
10:44 47.0177 -159.5755 87° East 551 634 37,000  Level FlightAware Transoceanic
10:45 47.0260 -159.3631 87° East 551 634 37,000  Level FlightAware Transoceanic
10:46 47.0339 -159.1507 87° East 551 634 37,000  Level FlightAware Transoceanic
10:47 47.0414 -158.9382 87° East 551 634 37,000  Level FlightAware Transoceanic
10:48 47.0494 -158.6979 87° East 539 620 37,000  Level FlightAware Transoceanic
10:49 47.0562 -158.4807 87° East 539 620 37,000  Level FlightAware Transoceanic
10:50 47.0626 -158.2634 88° East 539 620 37,000  Level FlightAware Transoceanic
10:51 47.0685 -158.0461 88° East 539 620 37,000  Level FlightAware Transoceanic
10:51 47.0667 -157.8833 88° East 530 610 37,000  Level Oakland Oceanic (ODAPS)
10:52 47.0741 -157.8287 88° East 539 620 37,000  Level FlightAware Transoceanic
10:53 47.0793 -157.6113 88° East 539 620 37,000  Level FlightAware Transoceanic
10:54 47.0840 -157.3938 88° East 539 620 37,000  Level FlightAware Transoceanic
10:55 47.0883 -157.1763 88° East 539 620 37,000  Level FlightAware Transoceanic
10:56 47.0922 -156.9588 89° East 539 620 37,000  Level FlightAware Transoceanic
10:57 47.0957 -156.7412 89° East 539 620 37,000  Level FlightAware Transoceanic
10:58 47.0932 -156.5693 89° East 530 610 37,000  Level FlightAware Transoceanic
10:59 47.0961 -156.3502 89° East 530 610 37,000  Level FlightAware Transoceanic
11:00 47.0986 -156.1311 89° East 530 610 37,000  Level FlightAware Transoceanic
11:01 47.1008 -155.9119 89° East 530 610 37,000  Level FlightAware Transoceanic
11:02 47.1025 -155.6927 89° East 530 610 37,000  Level FlightAware Transoceanic
11:03 47.1037 -155.4736 90° East 530 610 37,000  Level FlightAware Transoceanic
11:04 47.1046 -155.2543 90° East 530 610 37,000  Level FlightAware Transoceanic
11:05 47.1050 -155.0352 90° East 530 610 37,000  Level FlightAware Transoceanic
11:05 47.1167 -154.8667 90° East 534 615 37,000  Level Oakland Oceanic (ODAPS)
11:06 47.1051 -154.8159 90° East 530 610 37,000  Level FlightAware Transoceanic
11:07 47.1047 -154.5968 90° East 530 610 37,000  Level FlightAware Transoceanic
11:08 47.1039 -154.3776 90° East 530 610 37,000  Level FlightAware Transoceanic
11:09 47.1026 -154.1584 91° East 530 610 37,000  Level FlightAware Transoceanic
11:10 47.1010 -153.9392 91° East 530 610 37,000  Level FlightAware Transoceanic
11:11 47.0989 -153.7200 91° East 530 610 37,000  Level FlightAware Transoceanic
11:12 47.1053 -153.5376 91° East 534 615 37,000  Level FlightAware Transoceanic
11:13 47.1019 -153.3161 91° East 534 615 37,000  Level FlightAware Transoceanic
11:14 47.0981 -153.0947 92° East 534 615 37,000  Level FlightAware Transoceanic
11:15 47.0939 -152.8733 92° East 534 615 37,000  Level FlightAware Transoceanic
11:16 47.0892 -152.6520 92° East 534 615 37,000  Level FlightAware Transoceanic
11:17 47.0841 -152.4307 92° East 534 615 37,000  Level FlightAware Transoceanic
11:18 47.0786 -152.2094 92° East 534 615 37,000  Level FlightAware Transoceanic
11:19 47.0726 -151.9882 92° East 534 615 37,000  Level FlightAware Transoceanic
11:19 47.0667 -151.8333 92° East 533 613 37,000  Level Oakland Oceanic (ODAPS)
11:20 47.0663 -151.7670 93° East 534 615 37,000  Level FlightAware Transoceanic
11:21 47.0595 -151.5459 93° East 534 615 37,000  Level FlightAware Transoceanic
11:22 47.0522 -151.3249 93° East 534 615 37,000  Level FlightAware Transoceanic
11:23 47.0446 -151.1039 93° East 534 615 37,000  Level FlightAware Transoceanic
11:24 47.0365 -150.8830 93° East 534 615 37,000  Level FlightAware Transoceanic
11:25 47.0284 -150.6870 93° East 533 613 37,000  Level FlightAware Transoceanic
11:26 47.0194 -150.4579 93° East 533 613 37,000  Level FlightAware Transoceanic
11:27 47.0099 -150.2289 94° East 533 613 37,000  Level FlightAware Transoceanic
11:28 47.0000 -150.0000 102° East 533 613 37,000  Level FlightAware Transoceanic
11:28 47.0000 -150.0000 102° East 513 590 37,000  Level Oakland Oceanic (ODAPS)
11:29 46.9705 -149.8050 103° East 533 613 37,000  Level FlightAware Transoceanic
11:30 46.9407 -149.6101 103° East 533 613 37,000  Level FlightAware Transoceanic
11:31 46.9106 -149.4155 103° East 533 613 37,000  Level FlightAware Transoceanic
11:32 46.8801 -149.2211 103° East 533 613 37,000  Level FlightAware Transoceanic
11:33 46.8493 -149.0270 103° East 533 613 37,000 1,260 Level FlightAware Transoceanic
11:33 46.8333 -148.9000 103° East 505 581 39,000  Climbing Oakland Oceanic (ODAPS)
11:34 46.8108 -148.7874 103° East 513 590 37,000 -1,380 Descending FlightAware Transoceanic
11:35 46.7780 -148.5862 103° East 513 590 37,000  Level FlightAware Transoceanic
11:36 46.7449 -148.3852 104° East 513 590 37,000  Level FlightAware Transoceanic
11:37 46.7114 -148.1844 104° East 513 590 37,000  Level FlightAware Transoceanic
11:38 46.6776 -147.9839 104° East 513 590 37,000 960 Level FlightAware Transoceanic
11:39 46.6384 -147.7321 104° East 505 581 39,000 960 Climbing FlightAware Transoceanic
11:40 46.6048 -147.5383 104° East 505 581 39,000  Level FlightAware Transoceanic
11:41 46.5708 -147.3447 104° East 505 581 39,000  Level FlightAware Transoceanic
11:42 46.5365 -147.1514 105° East 505 581 39,000  Level FlightAware Transoceanic
11:43 46.5019 -146.9583 105° East 505 581 39,000  Level FlightAware Transoceanic
11:44 46.4669 -146.7654 105° East 505 581 39,000  Level FlightAware Transoceanic
11:45 46.4317 -146.5728 105° East 505 581 39,000  Level FlightAware Transoceanic
11:46 46.3961 -146.3805 105° East 505 581 39,000  Level FlightAware Transoceanic
11:47 46.3602 -146.1884 105° East 505 581 39,000  Level FlightAware Transoceanic
11:47 46.3667 -146.2167 105° East 494 568 39,000  Level Oakland Oceanic (ODAPS)
11:48 46.3239 -145.9965 105° East 505 581 39,000  Level FlightAware Transoceanic
11:49 46.2874 -145.8049 106° East 505 581 39,000  Level FlightAware Transoceanic
11:50 46.2505 -145.6136 106° East 505 581 39,000  Level FlightAware Transoceanic
11:51 46.2133 -145.4225 106° East 505 581 39,000  Level FlightAware Transoceanic
11:52 46.1758 -145.2317 106° East 505 581 39,000  Level FlightAware Transoceanic
11:53 46.1435 -145.0641 106° East 494 568 39,000  Level FlightAware Transoceanic
11:54 46.1052 -144.8730 106° East 494 568 39,000  Level FlightAware Transoceanic
11:55 46.0666 -144.6821 106° East 494 568 39,000  Level FlightAware Transoceanic
11:56 46.0276 -144.4914 106° East 494 568 39,000  Level FlightAware Transoceanic
11:57 45.9884 -144.3011 107° East 494 568 39,000  Level FlightAware Transoceanic
11:58 45.9488 -144.1109 107° East 494 568 39,000  Level FlightAware Transoceanic
11:59 45.9089 -143.9211 107° East 494 568 39,000  Level FlightAware Transoceanic
12:00 45.8687 -143.7316 107° East 494 568 39,000  Level FlightAware Transoceanic
12:01 45.8282 -143.5423 107° East 494 568 39,000  Level FlightAware Transoceanic
12:01 45.8333 -143.5833 107° East 498 573 39,000  Level Oakland Oceanic (ODAPS)
12:02 45.7873 -143.3533 107° East 494 568 39,000  Level FlightAware Transoceanic
12:03 45.7462 -143.1646 107° East 494 568 39,000  Level FlightAware Transoceanic
12:04 45.7047 -142.9761 108° East 494 568 39,000  Level FlightAware Transoceanic
12:05 45.6630 -142.7880 108° East 494 568 39,000  Level FlightAware Transoceanic
12:06 45.6209 -142.6001 108° East 494 568 39,000  Level FlightAware Transoceanic
12:07 45.5823 -142.4404 108° East 498 573 39,000  Level FlightAware Transoceanic
12:08 45.5394 -142.2509 108° East 498 573 39,000  Level FlightAware Transoceanic
12:09 45.4961 -142.0617 108° East 498 573 39,000  Level FlightAware Transoceanic
12:10 45.4526 -141.8728 108° East 498 573 39,000  Level FlightAware Transoceanic
12:11 45.4087 -141.6842 108° East 498 573 39,000  Level FlightAware Transoceanic
12:12 45.3645 -141.4958 109° East 498 573 39,000  Level FlightAware Transoceanic
12:13 45.3200 -141.3078 109° East 498 573 39,000  Level FlightAware Transoceanic
12:14 45.2752 -141.1201 109° East 498 573 39,000  Level FlightAware Transoceanic
12:15 45.2301 -140.9327 109° East 498 573 39,000  Level FlightAware Transoceanic
12:15 45.2500 -141.0167 109° East 486 559 39,000  Level Oakland Oceanic (ODAPS)
12:16 45.1847 -140.7455 109° East 498 573 39,000  Level FlightAware Transoceanic
12:17 45.1390 -140.5587 109° East 498 573 39,000  Level FlightAware Transoceanic
12:18 45.0930 -140.3722 109° East 498 573 39,000  Level FlightAware Transoceanic
12:19 45.0466 -140.1859 109° East 498 573 39,000  Level FlightAware Transoceanic
12:20 45.0000 -140.0000 109° East 498 573 39,000  Level FlightAware Transoceanic
12:20 45.0000 -140.0000 109° East 478 550 39,000  Level Oakland Oceanic (ODAPS)
12:21 45.0000 -140.0000 109° East 486 559 39,000  Level FlightAware Transoceanic
12:22 44.9574 -139.8253 109° East 486 559 39,000  Level FlightAware Transoceanic
12:23 44.9145 -139.6509 109° East 486 559 39,000  Level FlightAware Transoceanic
12:24 44.8713 -139.4767 109° East 486 559 39,000  Level FlightAware Transoceanic
12:25 44.8279 -139.3028 109° East 486 559 39,000  Level FlightAware Transoceanic
12:26 44.7842 -139.1292 110° East 486 559 39,000  Level FlightAware Transoceanic
12:27 44.7358 -138.9382 110° East 478 550 39,000  Level FlightAware Transoceanic
12:28 44.6908 -138.7621 110° East 478 550 39,000  Level FlightAware Transoceanic
12:29 44.6456 -138.5864 110° East 478 550 39,000  Level FlightAware Transoceanic
12:29 44.6333 -138.5167 110° East 475 547 39,000  Level Oakland Oceanic (ODAPS)
12:30 44.6001 -138.4109 110° East 478 550 39,000  Level FlightAware Transoceanic
12:31 44.5543 -138.2357 110° East 478 550 39,000  Level FlightAware Transoceanic
12:32 44.5082 -138.0608 110° East 478 550 39,000  Level FlightAware Transoceanic
12:33 44.4619 -137.8862 110° East 478 550 39,000  Level FlightAware Transoceanic
12:34 44.4153 -137.7118 111° Southeast 478 550 39,000  Level FlightAware Transoceanic
12:35 44.3571 -137.4767 111° Southeast 475 547 39,000  Level FlightAware Transoceanic
12:36 44.3101 -137.3043 111° Southeast 475 547 39,000  Level FlightAware Transoceanic
12:37 44.2629 -137.1322 111° Southeast 475 547 39,000  Level FlightAware Transoceanic
12:38 44.2155 -136.9604 111° Southeast 475 547 39,000  Level FlightAware Transoceanic
12:39 44.1677 -136.7889 111° Southeast 475 547 39,000  Level FlightAware Transoceanic
12:40 44.1197 -136.6176 111° Southeast 475 547 39,000  Level FlightAware Transoceanic
12:41 44.0715 -136.4466 112° Southeast 475 547 39,000  Level FlightAware Transoceanic
12:42 44.0230 -136.2759 112° Southeast 475 547 39,000  Level FlightAware Transoceanic
12:42 43.9500 -136.0667 112° Southeast 472 543 39,000  Level Oakland Oceanic (ODAPS)
12:43 43.9743 -136.1055 112° Southeast 475 547 39,000  Level FlightAware Transoceanic
12:44 43.9253 -135.9353 112° Southeast 475 547 39,000  Level FlightAware Transoceanic
12:45 43.8760 -135.7655 112° Southeast 475 547 39,000  Level FlightAware Transoceanic
12:46 43.8265 -135.5959 112° Southeast 475 547 39,000  Level FlightAware Transoceanic
12:47 43.7767 -135.4266 112° Southeast 475 547 39,000  Level FlightAware Transoceanic
12:48 43.7267 -135.2576 112° Southeast 475 547 39,000  Level FlightAware Transoceanic
12:49 43.6559 -135.0568 112° Southeast 472 543 39,000  Level FlightAware Transoceanic
12:50 43.6060 -134.8895 112° Southeast 472 543 39,000  Level FlightAware Transoceanic
12:51 43.5559 -134.7224 113° Southeast 472 543 39,000  Level FlightAware Transoceanic
12:52 43.5055 -134.5557 113° Southeast 472 543 39,000  Level FlightAware Transoceanic
12:53 43.4549 -134.3891 113° Southeast 472 543 39,000  Level FlightAware Transoceanic
12:54 43.4040 -134.2229 113° Southeast 472 543 39,000  Level FlightAware Transoceanic
12:55 43.3530 -134.0570 113° Southeast 472 543 39,000  Level FlightAware Transoceanic
12:56 43.3016 -133.8913 113° Southeast 472 543 39,000  Level FlightAware Transoceanic
12:56 43.2500 -133.7333 113° Southeast 471 542 39,000  Level Oakland Oceanic (ODAPS)
12:57 43.2500 -133.7259 113° Southeast 472 543 39,000  Level FlightAware Transoceanic
12:58 43.1982 -133.5608 113° Southeast 472 543 39,000  Level FlightAware Transoceanic
12:59 43.1462 -133.3960 113° Southeast 472 543 39,000  Level FlightAware Transoceanic
13:00 43.0939 -133.2315 114° Southeast 472 543 39,000  Level FlightAware Transoceanic
13:01 43.0414 -133.0672 114° Southeast 472 543 39,000  Level FlightAware Transoceanic
13:02 42.9887 -132.9032 114° Southeast 472 543 39,000  Level FlightAware Transoceanic
13:03 42.9357 -132.7450 114° Southeast 471 542 39,000  Level FlightAware Transoceanic
13:04 42.8825 -132.5812 114° Southeast 471 542 39,000  Level FlightAware Transoceanic
13:05 42.8290 -132.4178 114° Southeast 471 542 39,000  Level FlightAware Transoceanic
13:06 42.7753 -132.2546 114° Southeast 471 542 39,000  Level FlightAware Transoceanic
13:07 42.7214 -132.0917 114° Southeast 471 542 39,000  Level FlightAware Transoceanic
13:08 42.6673 -131.9291 114° Southeast 471 542 39,000  Level FlightAware Transoceanic
13:09 42.6129 -131.7668 115° Southeast 471 542 39,000  Level FlightAware Transoceanic
13:10 42.5583 -131.6048 115° Southeast 471 542 39,000  Level FlightAware Transoceanic
13:10 42.5333 -131.5000 115° Southeast 456 525 39,000  Level Oakland Oceanic (ODAPS)
13:11 42.5035 -131.4430 115° Southeast 471 542 39,000  Level FlightAware Transoceanic
13:12 42.4485 -131.2815 115° Southeast 471 542 39,000  Level FlightAware Transoceanic
13:13 42.3932 -131.1203 115° Southeast 471 542 39,000  Level FlightAware Transoceanic
13:14 42.3377 -130.9594 115° Southeast 471 542 39,000  Level FlightAware Transoceanic
13:15 42.2820 -130.7988 115° Southeast 471 542 39,000  Level FlightAware Transoceanic
13:16 42.2260 -130.6385 115° Southeast 471 542 39,000  Level FlightAware Transoceanic
13:17 42.1800 -130.4972 116° Southeast 456 525 39,000  Level FlightAware Transoceanic
13:18 42.1202 -130.3311 116° Southeast 456 525 39,000  Level FlightAware Transoceanic
13:19 42.0602 -130.1654 116° Southeast 456 525 39,000  Level FlightAware Transoceanic
13:20 42.0000 -130.0000 120° Southeast 456 525 39,000  Level FlightAware Transoceanic
13:21 41.9367 -129.8543 120° Southeast 456 525 39,000  Level FlightAware Transoceanic
13:21 42.0000 -130.0000 120° Southeast 448 516 39,000  Level Oakland Oceanic (ODAPS)
13:22 41.8732 -129.7088 120° Southeast 456 525 39,000  Level FlightAware Transoceanic
13:23 41.8096 -129.5637 121° Southeast 456 525 39,000  Level FlightAware Transoceanic
13:24 41.7457 -129.4188 121° Southeast 456 525 39,000  Level FlightAware Transoceanic
13:24 41.7500 -129.4333 121° Southeast 452 520 39,000  Level Oakland Oceanic (ODAPS)
13:25 41.6817 -129.2743 121° Southeast 456 525 39,000  Level FlightAware Transoceanic
13:26 41.6175 -129.1300 121° Southeast 456 525 39,000  Level FlightAware Transoceanic
13:27 41.5531 -128.9860 121° Southeast 456 525 39,000  Level FlightAware Transoceanic
13:28 41.5121 -128.8945 121° Southeast 448 516 39,000  Level FlightAware Transoceanic
13:29 41.4504 -128.7575 121° Southeast 448 516 39,000  Level FlightAware Transoceanic
13:30 41.3835 -128.6130 121° Southeast 452 520 39,000  Level FlightAware Transoceanic
13:31 41.3218 -128.4772 121° Southeast 452 520 39,000  Level FlightAware Transoceanic
13:32 41.2600 -128.3416 121° Southeast 452 520 39,000  Level FlightAware Transoceanic
13:33 41.1981 -128.2063 121° Southeast 452 520 39,000  Level FlightAware Transoceanic
13:34 41.1359 -128.0712 121° Southeast 452 520 39,000  Level FlightAware Transoceanic
13:35 41.0737 -127.9364 122° Southeast 452 520 39,000  Level FlightAware Transoceanic
13:36 41.0112 -127.8019 122° Southeast 452 520 39,000  Level FlightAware Transoceanic
13:37 40.9486 -127.6676 122° Southeast 452 520 39,000  Level FlightAware Transoceanic
13:38 40.8859 -127.5336 122° Southeast 452 520 39,000  Level FlightAware Transoceanic
13:38 40.8356 -127.4364 118° Southeast 459 528 39,000  Level Oakland Center
13:38 40.8333 -127.4500 120° Southeast 462 532 39,000  Level Oakland Oceanic (ODAPS)
13:39 40.8230 -127.3998 122° Southeast 452 520 39,000  Level FlightAware Transoceanic
13:39 40.7647 -127.2933 120° Southeast 461 531 39,000  Level Oakland Center
13:40 40.7599 -127.2663 122° Southeast 452 520 39,000  Level FlightAware Transoceanic
13:40 40.7167 -127.2000 119° Southeast 439 505 39,000  Level Oakland Oceanic (ODAPS)
13:40 40.6975 -127.1514 119° Southeast 461 531 39,000  Level Oakland Center
13:41 40.6967 -127.1330 122° Southeast 452 520 39,000  Level FlightAware Transoceanic
13:41 40.6108 -126.9867 125° Southeast 458 527 39,000  Level Oakland Center
13:42 40.6333 -127.0000 118° Southeast 452 520 39,000  Level FlightAware Transoceanic
13:42 40.5336 -126.8536 127° Southeast 457 526 39,000  Level Oakland Center
13:43 40.5723 -126.8474 118° Southeast 452 520 39,000  Level FlightAware Transoceanic
13:43 40.4558 -126.7214 128° Southeast 457 526 39,000  Level Oakland Center
13:44 40.3756 -126.5894 129° Southeast 461 531 39,000  Level Oakland Center
13:50 39.9020 -125.7850 129° Southeast 470 541 39,000  Level FlightAware
13:51 39.8410 -125.6830 128° Southeast 470 541 39,000  Level FlightAware
13:51 39.7950 -125.6050 127° Southeast 471 542 39,000  Level FlightAware
13:52 39.7540 -125.5380 129° Southeast 471 542 39,000  Level FlightAware
13:53 39.7010 -125.4490 128° Southeast 472 543 39,000  Level FlightAware
13:53 39.6540 -125.3710 128° Southeast 472 543 39,000  Level FlightAware
13:54 39.6070 -125.2930 128° Southeast 472 543 39,000  Level FlightAware
13:54 39.5590 -125.2140 128° Southeast 472 543 39,000  Level FlightAware
13:55 39.5130 -125.1390 128° Southeast 472 543 39,000  Level FlightAware
13:56 39.4580 -125.0480 128° Southeast 471 542 39,000  Level FlightAware
13:56 39.4110 -124.9720 129° Southeast 470 541 39,000  Level FlightAware
13:57 39.3610 -124.8910 129° Southeast 469 540 39,000  Level FlightAware
13:57 39.3110 -124.8090 128° Southeast 469 540 39,000  Level FlightAware
13:58 39.2710 -124.7430 128° Southeast 469 540 39,000  Level FlightAware
13:58 39.2210 -124.6640 129° Southeast 469 540 39,000  Level FlightAware
13:59 39.1840 -124.6030 128° Southeast 469 540 39,000  Level FlightAware
14:00 39.1330 -124.5210 129° Southeast 468 539 39,000  Level FlightAware
14:00 39.0870 -124.4470 129° Southeast 468 539 39,000 -120 Level FlightAware
14:01 39.0400 -124.3710 129° Southeast 462 532 38,900 -300 Descending FlightAware
14:01 39.0050 -124.3150 129° Southeast 450 518 38,700 -720 Descending FlightAware
14:02 38.9470 -124.2220 129° Southeast 450 518 38,100 -1,560 Descending FlightAware
14:02 38.9020 -124.1510 129° Southeast 450 518 36,800 -2,700 Descending FlightAware
14:03 38.8520 -124.0710 129° Southeast 455 524 34,900 -2,760 Descending FlightAware
14:04 38.8100 -124.0040 129° Southeast 453 521 33,600 -2,160 Descending FlightAware
14:04 38.7630 -123.9290 129° Southeast 443 510 32,500 -1,860 Descending FlightAware
14:05 38.7180 -123.8590 129° Southeast 433 498 31,400 -1,920 Descending FlightAware
14:05 38.6750 -123.7910 129° Southeast 423 487 30,300 -2,040 Descending FlightAware
14:06 38.6360 -123.7300 129° Southeast 420 483 29,200 -2,100 Descending FlightAware
14:07 38.5820 -123.6450 129° Southeast 413 475 27,700 -1,980 Descending FlightAware
14:07 38.5380 -123.5770 130° Southeast 407 468 26,600 -1,860 Descending FlightAware
14:08 38.4970 -123.5130 129° Southeast 401 461 25,500 -1,860 Descending FlightAware
14:08 38.4550 -123.4460 129° Southeast 394 453 24,400 -1,860 Descending FlightAware
14:09 38.4200 -123.3930 130° Southeast 388 447 23,500 -1,740 Descending FlightAware
14:10 38.3750 -123.3230 129° Southeast 380 437 22,400 -1,800 Descending FlightAware
14:10 38.3400 -123.2680 129° Southeast 375 432 21,400 -1,740 Descending FlightAware
14:11 38.2980 -123.2030 129° Southeast 369 425 20,300 -1,500 Descending FlightAware
14:12 38.2640 -123.1510 130° Southeast 363 418 19,400 -1,860 Descending FlightAware
14:12 38.2140 -123.0730 129° Southeast 356 410 18,000 -2,040 Descending FlightAware
14:13 38.1810 -123.0230 130° Southeast 351 404 17,100 -1,680 Descending FlightAware
14:13 38.1430 -122.9640 129° Southeast 346 398 16,100 -1,680 Descending FlightAware
14:14 38.1070 -122.9090 130° Southeast 342 394 15,100 -1,800 Descending FlightAware
14:14 38.0690 -122.8560 132° Southeast 336 387 14,000 -1,800 Descending FlightAware
14:15 38.0320 -122.8160 140° Southeast 332 382 13,100 -1,800 Descending FlightAware
14:16 37.9890 -122.7700 140° Southeast 329 379 12,000 -1,800 Descending FlightAware
14:16 37.9520 -122.7300 140° Southeast 326 375 11,100 -960 Descending FlightAware
14:17 37.9080 -122.6830 140° Southeast 304 350 10,900 -180 Descending FlightAware
14:17 37.8760 -122.6480 139° Southeast 278 320 10,900  Level FlightAware
14:18 37.8410 -122.6100 139° Southeast 276 318 10,900  Level FlightAware
14:18 37.8302 -122.5990 141° Southeast 277 319 10,900  Level FlightAware ADS-B
14:19 37.7743 -122.5390 140° Southeast 278 320 10,900  Level FlightAware ADS-B
14:20 37.7240 -122.4850 140° Southeast 279 321 10,900  Level FlightAware ADS-B
14:20 37.6958 -122.4550 140° Southeast 250 288 10,900  Level FlightAware ADS-B
14:21 37.6689 -122.4270 141° Southeast 248 285 10,900  Level FlightAware ADS-B
14:21 37.6424 -122.3980 139° Southeast 248 285 10,900  Level FlightAware ADS-B
14:22 37.6139 -122.3710 143° Southeast 246 283 10,900 -480 Level FlightAware ADS-B
14:22 37.5834 -122.3500 151° Southeast 239 275 10,400 -1,620 Descending FlightAware ADS-B
14:23 37.5683 -122.3400 152° Southeast 239 275 9,700 -2,640 Descending FlightAware ADS-B
14:23 37.5531 -122.3300 152° Southeast 239 275 9,100 -2,160 Descending FlightAware ADS-B
14:23 37.5381 -122.3210 155° Southeast 238 274 8,600 -2,220 Descending FlightAware ADS-B
14:24 37.5181 -122.3080 153° Southeast 237 273 7,800 -2,340 Descending FlightAware ADS-B
14:24 37.4997 -122.2970 155° Southeast 236 272 7,100 -2,160 Descending FlightAware ADS-B
14:24 37.4849 -122.2880 154° Southeast 236 272 6,600 -1,380 Descending FlightAware ADS-B
14:24 37.4699 -122.2780 152° Southeast 233 268 6,400 -840 Descending FlightAware ADS-B
14:25 37.4565 -122.2700 155° Southeast 225 259 6,200 -600 Descending FlightAware ADS-B
14:25 37.4403 -122.2610 156° South 214 246 6,100 -600 Descending FlightAware ADS-B
14:25 37.4373 -122.2580 142° Southeast 212 244 6,000 -780 Descending FlightAware ADS-B
14:25 37.4340 -122.2550 144° Southeast 209 241 6,000 -720 Level FlightAware ADS-B
14:25 37.4308 -122.2510 135° Southeast 208 239 5,900 -780 Descending FlightAware ADS-B
14:25 37.4288 -122.2480 130° Southeast 206 237 5,900  Level FlightAware ADS-B
14:25 37.4273 -122.2450 122° Southeast 205 236 5,900  Level FlightAware ADS-B
14:25 37.4234 -122.2350 116° Southeast 203 234 5,900  Level FlightAware ADS-B
14:25 37.4219 -122.2300 111° Southeast 200 230 5,900  Level FlightAware ADS-B
14:26 37.4209 -122.2260 107° East 197 227 5,900 -780 Level FlightAware ADS-B
14:26 37.4203 -122.2210 99° East 196 226 5,800 -720 Descending FlightAware ADS-B
14:26 37.4217 -122.2070 83° East 196 226 5,700 -900 Descending FlightAware ADS-B
14:26 37.4260 -122.1900 72° East 195 224 5,400 -1,020 Descending FlightAware ADS-B
14:26 37.4284 -122.1810 71° East 195 224 5,300 -1,020 Descending FlightAware ADS-B
14:26 37.4326 -122.1650 72° East 194 223 5,000 -1,020 Descending FlightAware ADS-B
14:27 37.4365 -122.1480 74° East 192 221 4,800 -1,080 Descending FlightAware ADS-B
14:27 37.4401 -122.1330 73° East 192 221 4,500 -1,200 Descending FlightAware ADS-B
14:27 37.4421 -122.1260 70° East 191 220 4,400 -960 Descending FlightAware ADS-B
14:27 37.4469 -122.1060 73° East 190 219 4,100 -960 Descending FlightAware ADS-B
14:28 37.4503 -122.0930 72° East 188 216 3,900 -720 Descending FlightAware ADS-B
14:28 37.4514 -122.0880 75° East 186 214 3,900  Level FlightAware ADS-B
14:28 37.4527 -122.0840 68° East 189 217 3,900  Level FlightAware ADS-B
14:28 37.4544 -122.0810 54° Northeast 190 219 3,900  Level FlightAware ADS-B
14:28 37.4565 -122.0770 57° Northeast 190 219 3,900  Level FlightAware ADS-B
14:28 37.4594 -122.0740 39° Northeast 190 219 3,900  Level FlightAware ADS-B
14:28 37.4623 -122.0720 29° Northeast 191 220 3,900  Level FlightAware ADS-B
14:28 37.4661 -122.0700 23° Northeast 191 220 3,900  Level FlightAware ADS-B
14:28 37.4691 -122.0700 360° North 192 221 3,900  Level FlightAware ADS-B
14:28 37.4724 -122.0690 14° North 192 221 3,900  Level FlightAware ADS-B
14:28 37.4751 -122.0700 344° North 192 221 3,900  Level FlightAware ADS-B
14:28 37.4784 -122.0710 346° North 193 222 3,900  Level FlightAware ADS-B
14:28 37.4821 -122.0730 337° Northwest 194 223 3,900  Level FlightAware ADS-B
14:28 37.4851 -122.0750 332° Northwest 194 223 3,900  Level FlightAware ADS-B
14:29 37.4881 -122.0770 332° Northwest 193 222 3,900  Level FlightAware ADS-B
14:29 37.4913 -122.0800 323° Northwest 193 222 3,900  Level FlightAware ADS-B
14:29 37.4944 -122.0830 322° Northwest 192 221 3,900  Level FlightAware ADS-B
14:29 37.4972 -122.0870 311° West 192 221 3,900  Level FlightAware ADS-B
14:29 37.4990 -122.0900 307° West 192 221 3,900  Level FlightAware ADS-B
14:29 37.5009 -122.0930 309° West 191 220 3,900  Level FlightAware ADS-B
14:29 37.5033 -122.0980 301° West 191 220 3,900  Level FlightAware ADS-B
14:29 37.5077 -122.1070 302° West 191 220 3,900  Level FlightAware ADS-B
14:29 37.5174 -122.1290 299° West 191 220 3,900 -360 Level FlightAware ADS-B
14:30 37.5218 -122.1400 297° West 193 222 3,700 -960 Descending FlightAware ADS-B
14:30 37.5281 -122.1550 298° West 194 223 3,500 -1,020 Descending FlightAware ADS-B
14:30 37.5344 -122.1700 298° West 195 224 3,200 -1,200 Descending FlightAware ADS-B
14:30 37.5409 -122.1860 297° West 195 224 2,900 -1,020 Descending FlightAware ADS-B
14:31 37.5474 -122.2010 299° West 194 223 2,700 -960 Descending FlightAware ADS-B
14:31 37.5516 -122.2110 298° West 188 216 2,500 -960 Descending FlightAware ADS-B
14:31 37.5576 -122.2250 298° West 179 206 2,300 -1,020 Descending FlightAware ADS-B
14:31 37.5638 -122.2390 299° West 173 199 2,000 -960 Descending FlightAware ADS-B
14:32 37.5696 -122.2530 298° West 162 186 1,800 -780 Descending FlightAware ADS-B
14:32 37.5748 -122.2650 299° West 142 163 1,600 -780 Descending FlightAware ADS-B
14:32 37.5795 -122.2770 296° West 140 161 1,400 -780 Descending FlightAware ADS-B
14:32 37.5836 -122.2870 297° West 140 161 1,200 -780 Descending FlightAware ADS-B
14:33 37.5890 -122.3000 298° West 140 161 1,000 -840 Descending FlightAware ADS-B
14:33 37.5951 -122.3140 299° West 133 153 700 -840 Descending FlightAware ADS-B
14:33 37.5999 -122.3250 299° West 129 148 500 -720 Descending FlightAware ADS-B
14:33 37.6027 -122.3320 297° West 128 147 400 -720 Descending FlightAware ADS-B
14:34 37.6069 -122.3420 298° West 126 145 200 -600 Descending FlightAware ADS-B
14:34 37.6089 -122.3460 302° West 126 145 200  Level FlightAware ADS-B
14:34 37.6184 -122.3690 298° West 96 110 -360 Descending FlightAware ADS-B